createdAt,value
2018-01-07T00:00:44.526Z,101358.09
2018-01-07T00:03:12.848Z,101350.54
2018-01-07T00:05:41.186Z,101358.48
2018-01-07T00:08:09.513Z,101365.98
2018-01-07T00:10:37.864Z,101371.62
2018-01-07T00:13:06.186Z,101376.46
2018-01-07T00:15:34.530Z,101381.69
2018-01-07T00:18:02.847Z,101381.75
2018-01-07T00:20:31.186Z,101386.48
2018-01-07T00:22:59.510Z,101390.48
2018-01-07T00:25:27.856Z,101390.94
2018-01-07T00:27:56.165Z,101394.48
2018-01-07T00:30:24.510Z,101399.33
2018-01-07T00:32:52.829Z,101400.59
2018-01-07T00:35:21.167Z,101408.52
2018-01-07T00:37:49.783Z,101409.40
2018-01-07T00:40:18.129Z,101413.78
2018-01-07T00:42:46.447Z,101417.35
2018-01-07T00:45:14.777Z,101427.80
2018-01-07T00:47:43.094Z,101426.55
2018-01-07T00:50:11.434Z,101430.50
2018-01-07T00:52:39.751Z,101440.57
2018-01-07T00:55:08.088Z,101446.66
2018-01-07T00:57:36.410Z,101457.17
2018-01-07T01:00:04.750Z,101451.58
2018-01-07T01:02:33.062Z,101459.43
2018-01-07T01:05:01.402Z,101459.88
2018-01-07T01:07:29.713Z,101469.04
2018-01-07T01:09:58.055Z,101473.89
2018-01-07T01:12:26.370Z,101477.39
2018-01-07T01:14:54.714Z,101475.66
2018-01-07T01:17:23.026Z,101479.59
2018-01-07T01:19:51.371Z,101487.04
2018-01-07T01:22:19.690Z,101491.41
2018-01-07T01:24:48.022Z,101495.80
2018-01-07T01:27:16.330Z,101495.38
2018-01-07T01:29:44.674Z,101499.77
2018-01-07T01:32:12.986Z,101505.03
2018-01-07T01:34:41.304Z,101510.27
2018-01-07T01:37:09.642Z,101515.95
2018-01-07T01:39:37.965Z,101510.70
2018-01-07T01:42:06.298Z,101517.69
2018-01-07T01:44:34.614Z,101522.06
2018-01-07T01:47:02.946Z,101530.80
2018-01-07T01:52:05.878Z,101528.20
2018-01-07T01:54:34.178Z,101533.90
2018-01-07T01:57:02.510Z,101542.23
2018-01-07T01:59:30.830Z,101551.41
2018-01-07T02:01:59.158Z,101546.59
2018-01-07T02:04:27.478Z,101549.68
2018-01-07T02:06:55.814Z,101552.75
2018-01-07T02:09:24.269Z,101551.02
2018-01-07T02:11:52.610Z,101558.44
2018-01-07T02:14:21.446Z,101567.20
2018-01-07T02:16:49.775Z,101569.37
2018-01-07T02:19:18.088Z,101567.66
2018-01-07T02:21:46.429Z,101570.23
2018-01-07T02:24:15.246Z,101578.17
2018-01-07T02:26:43.578Z,101580.80
2018-01-07T02:29:11.886Z,101589.11
2018-01-07T02:31:40.232Z,101586.95
2018-01-07T02:34:08.545Z,101607.50
2018-01-07T02:36:36.878Z,101610.14
2018-01-07T02:39:05.194Z,101614.52
2018-01-07T02:41:33.530Z,101621.51
2018-01-07T02:44:01.837Z,101624.14
2018-01-07T02:46:30.174Z,101619.34
2018-01-07T02:48:58.489Z,101631.15
2018-01-07T02:51:26.822Z,101635.08
2018-01-07T02:53:55.142Z,101639.44
2018-01-07T02:56:23.488Z,101640.33
2018-01-07T02:58:51.794Z,101641.66
2018-01-07T03:01:20.129Z,101655.64
2018-01-07T03:03:48.442Z,101660.88
2018-01-07T03:06:16.778Z,101667.41
2018-01-07T03:08:45.091Z,101677.47
2018-01-07T03:11:13.439Z,101674.38
2018-01-07T03:13:41.754Z,101676.58
2018-01-07T03:16:10.089Z,101694.92
2018-01-07T03:18:38.412Z,101697.11
2018-01-07T03:21:06.742Z,101701.05
2018-01-07T03:23:35.054Z,101699.28
2018-01-07T03:26:03.394Z,101701.48
2018-01-07T03:28:31.710Z,101707.13
2018-01-07T03:31:00.048Z,101711.52
2018-01-07T03:33:28.362Z,101712.41
2018-01-07T03:35:56.701Z,101718.50
2018-01-07T03:38:25.023Z,101724.58
2018-01-07T03:40:53.342Z,101718.90
2018-01-07T03:43:21.682Z,101727.61
2018-01-07T03:45:49.996Z,101731.13
2018-01-07T03:48:18.649Z,101735.50
2018-01-07T03:50:46.961Z,101741.13
2018-01-07T03:53:15.295Z,101738.11
2018-01-07T03:55:43.611Z,101742.81
2018-01-07T03:58:11.941Z,101739.77
2018-01-07T04:00:40.249Z,101746.74
2018-01-07T04:03:08.587Z,101745.80
2018-01-07T04:05:36.904Z,101747.98
2018-01-07T04:08:05.242Z,101749.72
2018-01-07T04:10:33.542Z,101747.53
2018-01-07T04:13:01.870Z,101750.14
2018-01-07T04:15:30.186Z,101758.89
2018-01-07T04:17:58.514Z,101761.47
2018-01-07T04:20:26.830Z,101768.42
2018-01-07T04:22:55.815Z,101760.13
2018-01-07T04:25:24.126Z,101770.14
2018-01-07T04:27:52.462Z,101770.55
2018-01-07T04:30:20.770Z,101778.44
2018-01-07T04:32:49.097Z,101783.17
2018-01-07T04:35:17.417Z,101781.47
2018-01-07T04:37:45.754Z,101783.28
2018-01-07T04:40:14.074Z,101786.27
2018-01-07T04:42:42.412Z,101794.45
2018-01-07T04:45:10.722Z,101789.30
2018-01-07T04:47:39.054Z,101798.37
2018-01-07T04:50:07.366Z,101805.36
2018-01-07T04:52:35.703Z,101803.22
2018-01-07T04:55:04.022Z,101806.28
2018-01-07T04:57:32.367Z,101812.30
2018-01-07T05:00:00.686Z,101824.06
2018-01-07T05:02:29.032Z,101830.09
2018-01-07T05:04:57.351Z,101822.30
2018-01-07T05:07:25.690Z,101828.80
2018-01-07T05:09:53.998Z,101830.58
2018-01-07T05:12:22.334Z,101832.33
2018-01-07T05:14:50.649Z,101845.83
2018-01-07T05:17:18.983Z,101851.00
2018-01-07T05:19:47.301Z,101847.51
2018-01-07T05:22:15.643Z,101852.29
2018-01-07T05:24:43.950Z,101854.88
2018-01-07T05:27:12.286Z,101861.36
2018-01-07T05:29:41.743Z,101869.23
2018-01-07T05:32:10.074Z,101872.23
2018-01-07T05:34:38.389Z,101880.16
2018-01-07T05:37:06.731Z,101880.56
2018-01-07T05:39:35.043Z,101891.00
2018-01-07T05:42:03.401Z,101893.14
2018-01-07T05:44:31.718Z,101898.80
2018-01-07T05:47:00.041Z,101898.30
2018-01-07T05:49:28.362Z,101906.09
2018-01-07T05:51:56.675Z,101907.01
2018-01-07T05:54:25.010Z,101906.52
2018-01-07T05:56:53.331Z,101909.09
2018-01-07T05:59:21.678Z,101910.81
2018-01-07T06:01:49.991Z,101916.94
2018-01-07T06:04:18.325Z,101919.97
2018-01-07T06:06:46.648Z,101926.12
2018-01-07T06:09:14.990Z,101932.14
2018-01-07T06:11:43.310Z,101933.88
2018-01-07T06:14:11.650Z,101943.93
2018-01-07T06:16:39.966Z,101949.63
2018-01-07T06:19:08.306Z,101964.86
2018-01-07T06:21:36.617Z,101966.14
2018-01-07T06:24:04.955Z,101957.39
2018-01-07T06:26:33.278Z,101964.78
2018-01-07T06:29:01.624Z,101978.70
2018-01-07T06:31:29.934Z,101974.83
2018-01-07T06:33:58.270Z,101985.20
2018-01-07T06:36:26.594Z,101992.69
2018-01-07T06:38:54.944Z,101991.77
2018-01-07T06:41:23.256Z,101995.70
2018-01-07T06:43:51.590Z,102001.86
2018-01-07T06:46:19.906Z,102003.89
2018-01-07T06:48:48.242Z,102001.80
2018-01-07T06:51:16.558Z,102015.81
2018-01-07T06:53:44.894Z,102027.44
2018-01-07T06:56:13.214Z,102024.77
2018-01-07T06:58:41.555Z,102028.34
2018-01-07T07:01:09.874Z,102035.21
2018-01-07T07:03:38.205Z,102040.95
2018-01-07T07:06:06.525Z,102036.60
2018-01-07T07:08:34.870Z,102042.64
2018-01-07T07:11:03.182Z,102035.70
2018-01-07T07:13:31.518Z,102043.50
2018-01-07T07:15:59.833Z,102042.21
2018-01-07T07:18:28.175Z,102052.72
2018-01-07T07:20:56.489Z,102067.04
2018-01-07T07:23:24.830Z,102071.38
2018-01-07T07:25:53.142Z,102072.75
2018-01-07T07:28:21.483Z,102073.97
2018-01-07T07:30:49.802Z,102085.74
2018-01-07T07:33:18.138Z,102090.45
2018-01-07T07:35:46.482Z,102106.56
2018-01-07T07:38:14.822Z,102104.91
2018-01-07T07:40:43.337Z,102101.89
2018-01-07T07:43:11.726Z,102101.75
2018-01-07T07:45:41.013Z,102121.49
2018-01-07T07:48:09.372Z,102124.97
2018-01-07T07:50:38.273Z,102135.50
2018-01-07T07:53:06.572Z,102136.66
2018-01-07T07:55:34.990Z,102147.56
2018-01-07T07:58:03.815Z,102153.34
2018-01-07T08:00:32.243Z,102154.20
2018-01-07T08:03:00.774Z,102160.34
2018-01-07T08:05:29.569Z,102165.63
2018-01-07T08:07:57.895Z,102170.44
2018-01-07T08:10:26.244Z,102168.91
2018-01-07T08:12:54.562Z,102166.78
2018-01-07T08:15:23.241Z,102172.09
2018-01-07T08:17:51.562Z,102168.93
2018-01-07T08:20:19.903Z,102184.20
2018-01-07T08:22:48.230Z,102183.25
2018-01-07T08:25:16.802Z,102186.37
2018-01-07T08:27:45.127Z,102198.59
2018-01-07T08:30:14.784Z,102191.70
2018-01-07T08:32:43.144Z,102206.96
2018-01-07T08:35:12.015Z,102209.02
2018-01-07T08:37:40.318Z,102210.80
2018-01-07T08:40:08.653Z,102216.86
2018-01-07T08:42:36.969Z,102217.02
2018-01-07T08:45:05.310Z,102217.42
2018-01-07T08:47:33.767Z,102224.00
2018-01-07T08:50:02.098Z,102232.80
2018-01-07T08:52:30.469Z,102234.22
2018-01-07T08:54:58.806Z,102244.70
2018-01-07T08:57:27.123Z,102237.53
2018-01-07T08:59:55.467Z,102256.61
2018-01-07T09:02:23.786Z,102262.20
2018-01-07T09:04:52.122Z,102272.91
2018-01-07T09:07:20.634Z,102275.20
2018-01-07T09:09:48.966Z,102282.80
2018-01-07T09:12:17.286Z,102287.52
2018-01-07T09:14:45.655Z,102294.98
2018-01-07T09:17:14.100Z,102302.05
2018-01-07T09:19:42.438Z,102299.75
2018-01-07T09:22:10.758Z,102305.83
2018-01-07T09:24:39.127Z,102298.81
2018-01-07T09:27:07.441Z,102304.05
2018-01-07T09:29:35.780Z,102302.07
2018-01-07T09:32:04.609Z,102310.59
2018-01-07T09:34:32.946Z,102312.49
2018-01-07T09:37:01.274Z,102316.11
2018-01-07T09:39:29.911Z,102313.45
2018-01-07T09:41:58.370Z,102312.67
2018-01-07T09:44:26.699Z,102301.23
2018-01-07T09:46:55.106Z,102317.39
2018-01-07T09:49:23.580Z,102320.86
2018-01-07T09:51:51.899Z,102324.40
2018-01-07T09:54:20.350Z,102327.05
2018-01-07T09:56:49.273Z,102319.51
2018-01-07T09:59:17.590Z,102316.91
2018-01-07T10:01:45.922Z,102324.90
2018-01-07T10:04:14.242Z,102331.87
2018-01-07T10:06:42.578Z,102330.92
2018-01-07T10:09:10.899Z,102320.99
2018-01-07T10:11:39.238Z,102319.59
2018-01-07T10:14:08.150Z,102329.06
2018-01-07T10:16:36.493Z,102321.47
2018-01-07T10:19:04.806Z,102320.14
2018-01-07T10:21:33.155Z,102331.52
2018-01-07T10:24:01.469Z,102313.05
2018-01-07T10:26:29.818Z,102318.83
2018-01-07T10:28:58.133Z,102317.65
2018-01-07T10:31:26.470Z,102318.65
2018-01-07T10:33:54.810Z,102321.73
2018-01-07T10:36:23.150Z,102331.34
2018-01-07T10:38:51.473Z,102325.25
2018-01-07T10:41:19.832Z,102324.87
2018-01-07T10:43:48.146Z,102327.73
2018-01-07T10:46:16.482Z,102329.64
2018-01-07T10:48:44.798Z,102328.89
2018-01-07T10:51:13.138Z,102333.30
2018-01-07T10:53:41.455Z,102326.92
2018-01-07T10:56:09.805Z,102321.41
2018-01-07T10:58:38.117Z,102331.77
2018-01-07T11:01:12.116Z,102338.73
2018-01-07T11:03:40.432Z,102335.28
2018-01-07T11:06:08.769Z,102337.95
2018-01-07T11:08:37.084Z,102347.45
2018-01-07T11:11:05.425Z,102346.20
2018-01-07T11:13:33.738Z,102336.97
2018-01-07T11:16:02.086Z,102332.55
2018-01-07T11:18:30.403Z,102336.27
2018-01-07T11:20:58.758Z,102331.49
2018-01-07T11:23:27.074Z,102335.47
2018-01-07T11:25:55.410Z,102331.02
2018-01-07T11:28:24.458Z,102335.86
2018-01-07T11:30:52.798Z,102356.37
2018-01-07T11:33:21.115Z,102348.33
2018-01-07T11:35:51.146Z,102358.64
2018-01-07T11:38:21.922Z,102350.98
2018-01-07T11:40:51.435Z,102351.81
2018-01-07T11:43:21.430Z,102354.09
2018-01-07T11:45:50.726Z,102354.56
2018-01-07T11:48:19.042Z,102352.91
2018-01-07T11:50:47.411Z,102350.09
2018-01-07T11:53:17.370Z,102359.41
2018-01-07T11:55:45.767Z,102357.38
2018-01-07T11:58:15.674Z,102359.45
2018-01-07T12:00:49.525Z,102352.05
2018-01-07T12:03:17.842Z,102362.28
2018-01-07T12:05:46.182Z,102355.75
2018-01-07T12:08:14.667Z,102357.84
2018-01-07T12:10:43.021Z,102354.30
2018-01-07T12:13:11.333Z,102353.93
2018-01-07T12:15:39.650Z,102347.44
2018-01-07T12:18:07.995Z,102349.59
2018-01-07T12:20:36.332Z,102350.02
2018-01-07T12:23:04.658Z,102344.31
2018-01-07T12:25:34.098Z,102351.00
2018-01-07T12:28:03.250Z,102357.06
2018-01-07T12:30:31.567Z,102355.67
2018-01-07T12:32:59.927Z,102352.64
2018-01-07T12:35:28.253Z,102353.59
2018-01-07T12:37:56.582Z,102351.25
2018-01-07T12:40:24.909Z,102344.41
2018-01-07T12:42:53.246Z,102351.41
2018-01-07T12:45:21.562Z,102349.73
2018-01-07T12:47:49.902Z,102338.84
2018-01-07T12:50:18.217Z,102342.48
2018-01-07T12:52:46.559Z,102341.86
2018-01-07T12:55:14.894Z,102338.82
2018-01-07T12:57:43.402Z,102344.87
2018-01-07T13:00:13.076Z,102340.81
2018-01-07T13:02:46.914Z,102341.66
2018-01-07T13:05:15.958Z,102348.69
2018-01-07T13:07:46.812Z,102357.02
2018-01-07T13:10:15.130Z,102352.66
2018-01-07T13:12:43.550Z,102346.91
2018-01-07T13:15:11.878Z,102343.05
2018-01-07T13:17:40.221Z,102337.48
2018-01-07T13:20:08.534Z,102348.38
2018-01-07T13:22:36.869Z,102347.77
2018-01-07T13:25:05.185Z,102345.45
2018-01-07T13:27:33.546Z,102350.36
2018-01-07T13:30:01.870Z,102352.39
2018-01-07T13:32:30.213Z,102359.80
2018-01-07T13:34:58.543Z,102362.17
2018-01-07T13:37:26.878Z,102359.52
2018-01-07T13:39:55.236Z,102360.42
2018-01-07T13:42:23.575Z,102360.48
2018-01-07T13:44:51.895Z,102366.95
2018-01-07T13:47:20.239Z,102361.82
2018-01-07T13:49:48.934Z,102357.78
2018-01-07T13:52:17.270Z,102363.95
2018-01-07T13:54:45.600Z,102360.53
2018-01-07T13:57:13.934Z,102363.91
2018-01-07T13:59:42.246Z,102360.27
2018-01-07T14:02:10.590Z,102361.16
2018-01-07T14:04:38.914Z,102361.53
2018-01-07T14:07:07.255Z,102360.12
2018-01-07T14:09:36.522Z,102367.62
2018-01-07T14:12:04.854Z,102355.63
2018-01-07T14:14:33.174Z,102361.86
2018-01-07T14:17:01.514Z,102364.87
2018-01-07T14:19:29.830Z,102371.81
2018-01-07T14:21:58.202Z,102364.03
2018-01-07T14:24:26.527Z,102373.55
2018-01-07T14:26:54.856Z,102371.86
2018-01-07T14:29:23.198Z,102373.64
2018-01-07T14:31:51.524Z,102369.57
2018-01-07T14:34:19.866Z,102380.91
2018-01-07T14:36:48.191Z,102378.32
2018-01-07T14:39:16.566Z,102386.00
2018-01-07T14:41:44.899Z,102383.19
2018-01-07T14:44:13.243Z,102385.75
2018-01-07T14:46:41.561Z,102390.89
2018-01-07T14:49:09.898Z,102387.58
2018-01-07T14:51:38.218Z,102383.23
2018-01-07T14:54:06.567Z,102386.17
2018-01-07T14:56:34.887Z,102391.81
2018-01-07T14:59:03.232Z,102385.77
2018-01-07T15:01:31.545Z,102395.34
2018-01-07T15:03:59.881Z,102392.06
2018-01-07T15:06:28.198Z,102392.89
2018-01-07T15:08:56.549Z,102389.13
2018-01-07T15:11:24.866Z,102397.25
2018-01-07T15:13:53.206Z,102393.57
2018-01-07T15:16:21.521Z,102396.97
2018-01-07T15:18:49.866Z,102392.36
2018-01-07T15:21:18.189Z,102399.76
2018-01-07T15:23:46.523Z,102398.02
2018-01-07T15:26:14.834Z,102396.02
2018-01-07T15:28:43.174Z,102397.86
2018-01-07T15:31:11.501Z,102403.95
2018-01-07T15:33:39.842Z,102398.68
2018-01-07T15:36:08.158Z,102401.77
2018-01-07T15:38:36.502Z,102407.81
2018-01-07T15:41:04.844Z,102410.34
2018-01-07T15:43:33.190Z,102410.27
2018-01-07T15:46:01.510Z,102408.91
2018-01-07T15:48:29.849Z,102420.65
2018-01-07T15:50:58.169Z,102420.36
2018-01-07T15:53:27.414Z,102424.36
2018-01-07T15:55:56.699Z,102426.11
2018-01-07T15:58:25.037Z,102427.59
2018-01-07T16:00:53.364Z,102435.49
2018-01-07T16:03:21.710Z,102431.83
2018-01-07T16:05:50.057Z,102439.05
2018-01-07T16:08:18.517Z,102430.92
2018-01-07T16:13:32.465Z,102430.53
2018-01-07T16:16:01.676Z,102424.40
2018-01-07T16:18:34.725Z,102437.89
2018-01-07T16:21:03.051Z,102432.53
2018-01-07T16:23:31.411Z,102435.01
2018-01-07T16:26:03.182Z,102432.02
2018-01-07T16:28:33.548Z,102437.09
2018-01-07T16:31:01.901Z,102441.02
2018-01-07T16:33:30.293Z,102442.44
2018-01-07T16:35:58.638Z,102439.40
2018-01-07T16:38:27.691Z,102430.09
2018-01-07T16:40:56.016Z,102429.08
2018-01-07T16:43:24.368Z,102432.80
2018-01-07T16:45:53.664Z,102433.66
2018-01-07T16:48:22.047Z,102441.77
2018-01-07T16:50:50.511Z,102442.71
2018-01-07T16:53:18.834Z,102434.20
2018-01-07T16:55:47.198Z,102435.45
2018-01-07T16:58:15.515Z,102438.45
2018-01-07T17:00:43.854Z,102441.11
2018-01-07T17:03:12.185Z,102435.11
2018-01-07T17:05:40.544Z,102439.80
2018-01-07T17:08:08.887Z,102442.48
2018-01-07T17:10:37.230Z,102436.67
2018-01-07T17:13:05.557Z,102445.56
2018-01-07T17:15:33.890Z,102448.08
2018-01-07T17:18:02.828Z,102451.27
2018-01-07T17:20:31.247Z,102451.19
2018-01-07T17:22:59.605Z,102452.96
2018-01-07T17:25:28.754Z,102452.07
2018-01-07T17:27:57.085Z,102456.84
2018-01-07T17:30:25.426Z,102452.50
2018-01-07T17:32:53.826Z,102456.78
2018-01-07T17:35:22.488Z,102452.33
2018-01-07T17:37:50.778Z,102454.13
2018-01-07T17:40:19.126Z,102456.64
2018-01-07T17:42:47.450Z,102460.84
2018-01-07T17:45:15.807Z,102465.48
2018-01-07T17:47:44.124Z,102460.42
2018-01-07T17:50:12.462Z,102463.72
2018-01-07T17:52:40.794Z,102468.44
2018-01-07T17:55:09.135Z,102477.20
2018-01-07T17:57:37.464Z,102477.94
2018-01-07T18:00:05.810Z,102494.02
2018-01-07T18:02:34.125Z,102493.47
2018-01-07T18:05:02.476Z,102499.56
2018-01-07T18:07:30.858Z,102499.25
2018-01-07T18:09:59.218Z,102506.53
2018-01-07T18:12:27.540Z,102517.11
2018-01-07T18:14:55.879Z,102522.94
2018-01-07T18:17:24.560Z,102522.45
2018-01-07T18:19:52.882Z,102524.50
2018-01-07T18:22:21.266Z,102529.42
2018-01-07T18:24:49.643Z,102530.91
2018-01-07T18:27:18.987Z,102546.23
2018-01-07T18:29:47.774Z,102537.44
2018-01-07T18:32:16.976Z,102544.30
2018-01-07T18:34:45.322Z,102546.03
2018-01-07T18:37:13.646Z,102544.94
2018-01-07T18:39:42.008Z,102546.29
2018-01-07T18:42:10.308Z,102531.94
2018-01-07T18:44:38.659Z,102528.70
2018-01-07T18:47:06.979Z,102532.44
2018-01-07T18:49:35.319Z,102537.02
2018-01-07T18:52:03.642Z,102540.23
2018-01-07T18:54:32.007Z,102548.13
2018-01-07T18:57:00.356Z,102548.52
2018-01-07T18:59:28.658Z,102542.73
2018-01-07T19:01:56.998Z,102538.09
2018-01-07T19:04:25.314Z,102541.48
2018-01-07T19:06:53.651Z,102539.94
2018-01-07T19:09:21.982Z,102541.23
2018-01-07T19:11:50.325Z,102537.31
2018-01-07T19:14:18.653Z,102535.14
2018-01-07T19:16:46.998Z,102536.57
2018-01-07T19:19:15.337Z,102539.88
2018-01-07T19:21:43.718Z,102540.94
2018-01-07T19:24:12.067Z,102529.44
2018-01-07T19:26:40.430Z,102532.94
2018-01-07T19:29:08.745Z,102530.75
2018-01-07T19:31:37.077Z,102536.48
2018-01-07T19:34:05.412Z,102537.09
2018-01-07T19:36:33.746Z,102531.44
2018-01-07T19:39:02.066Z,102531.32
2018-01-07T19:41:30.406Z,102528.21
2018-01-07T19:43:58.722Z,102530.58
2018-01-07T19:46:27.918Z,102535.02
2018-01-07T19:48:56.234Z,102532.97
2018-01-07T19:51:24.574Z,102527.72
2018-01-07T19:53:52.893Z,102529.72
2018-01-07T19:56:21.238Z,102531.73
2018-01-07T19:58:49.558Z,102538.81
2018-01-07T20:01:17.902Z,102532.66
2018-01-07T20:03:46.231Z,102528.97
2018-01-07T20:06:14.569Z,102532.58
2018-01-07T20:08:42.886Z,102523.36
2018-01-07T20:11:11.674Z,102535.50
2018-01-07T20:13:39.994Z,102529.36
2018-01-07T20:16:09.366Z,102536.83
2018-01-07T20:18:37.787Z,102537.80
2018-01-07T20:21:06.151Z,102539.60
2018-01-07T20:23:34.546Z,102540.62
2018-01-07T20:26:03.972Z,102538.97
2018-01-07T20:28:32.306Z,102546.89
2018-01-07T20:31:00.688Z,102541.09
2018-01-07T20:33:28.999Z,102539.89
2018-01-07T20:35:57.335Z,102545.51
2018-01-07T20:38:25.650Z,102559.98
2018-01-07T20:40:53.982Z,102550.03
2018-01-07T20:43:22.377Z,102556.14
2018-01-07T20:45:50.718Z,102559.55
2018-01-07T20:48:19.059Z,102556.77
2018-01-07T20:50:47.473Z,102561.52
2018-01-07T20:53:15.790Z,102556.80
2018-01-07T20:55:45.018Z,102564.13
2018-01-07T20:58:13.334Z,102561.55
2018-01-07T21:00:41.692Z,102560.50
2018-01-07T21:03:10.019Z,102559.35
2018-01-07T21:05:38.330Z,102565.30
2018-01-07T21:08:06.671Z,102558.66
2018-01-07T21:10:35.146Z,102559.77
2018-01-07T21:13:03.786Z,102561.72
2018-01-07T21:15:32.474Z,102559.86
2018-01-07T21:18:01.248Z,102555.56
2018-01-07T21:20:29.637Z,102556.14
2018-01-07T21:22:57.981Z,102553.58
2018-01-07T21:25:27.297Z,102548.78
2018-01-07T21:27:55.643Z,102551.28
2018-01-07T21:30:23.964Z,102554.23
2018-01-07T21:32:52.298Z,102562.11
2018-01-07T21:35:20.619Z,102559.42
2018-01-07T21:37:48.971Z,102558.03
2018-01-07T21:40:17.282Z,102562.08
2018-01-07T21:42:45.675Z,102560.00
2018-01-07T21:45:14.136Z,102557.23
2018-01-07T21:47:42.457Z,102566.34
2018-01-07T21:50:10.778Z,102559.06
2018-01-07T21:52:39.126Z,102563.66
2018-01-07T21:55:07.436Z,102555.98
2018-01-07T21:57:35.783Z,102547.17
2018-01-07T22:00:15.970Z,102539.97
2018-01-07T22:02:44.306Z,102542.06
2018-01-07T22:05:15.557Z,102541.20
2018-01-07T22:07:43.906Z,102539.39
2018-01-07T22:10:12.221Z,102539.31
2018-01-07T22:12:40.582Z,102536.25
2018-01-07T22:15:08.882Z,102542.50
2018-01-07T22:17:38.099Z,102544.62
2018-01-07T22:20:12.239Z,102541.87
2018-01-07T22:22:41.356Z,102548.75
2018-01-07T22:25:10.084Z,102537.81
2018-01-07T22:27:39.882Z,102537.90
2018-01-07T22:30:08.202Z,102541.37
2018-01-07T22:32:36.538Z,102542.61
2018-01-07T22:35:04.850Z,102539.98
2018-01-07T22:37:33.188Z,102540.25
2018-01-07T22:40:01.499Z,102540.78
2018-01-07T22:42:29.838Z,102542.86
2018-01-07T22:44:58.153Z,102539.36
2018-01-07T22:47:32.000Z,102538.09
2018-01-07T22:50:00.333Z,102536.94
2018-01-07T22:52:28.655Z,102527.12
2018-01-07T22:54:56.974Z,102533.55
2018-01-07T22:57:25.301Z,102528.44
2018-01-07T22:59:53.613Z,102535.14
2018-01-07T23:02:21.952Z,102536.16
2018-01-07T23:04:50.262Z,102530.69
2018-01-07T23:07:18.595Z,102539.30
2018-01-07T23:09:46.910Z,102545.14
2018-01-07T23:12:15.247Z,102537.09
2018-01-07T23:14:43.561Z,102537.90
2018-01-07T23:17:11.902Z,102535.20
2018-01-07T23:19:40.213Z,102534.59
2018-01-07T23:22:08.545Z,102528.27
2018-01-07T23:24:36.857Z,102532.89
2018-01-07T23:27:05.216Z,102533.64
2018-01-07T23:29:33.530Z,102531.02
2018-01-07T23:32:01.845Z,102538.86
2018-01-07T23:34:30.183Z,102534.17
2018-01-07T23:36:58.494Z,102533.45
2018-01-07T23:39:26.825Z,102527.65
2018-01-07T23:41:55.133Z,102529.34
2018-01-07T23:44:23.474Z,102525.28
2018-01-07T23:46:51.793Z,102512.80
2018-01-07T23:49:20.137Z,102509.95
2018-01-07T23:51:48.458Z,102519.53
2018-01-07T23:54:16.789Z,102505.98
2018-01-07T23:56:45.109Z,102521.60
2018-01-07T23:59:13.441Z,102515.88
